createdAt,value
2024-01-28T00:00:44.622Z,-1.98
2024-01-28T00:03:11.604Z,-1.94
2024-01-28T00:05:38.342Z,-1.92
2024-01-28T00:08:08.231Z,-1.81
2024-01-28T00:10:34.914Z,-1.71
2024-01-28T00:13:01.552Z,-1.88
2024-01-28T00:15:28.373Z,-1.85
2024-01-28T00:17:55.489Z,-1.87
2024-01-28T00:20:22.348Z,-2.04
2024-01-28T00:22:48.950Z,-1.89
2024-01-28T00:25:16.064Z,-1.83
2024-01-28T00:27:42.740Z,-1.92
2024-01-28T00:30:12.652Z,-1.95
2024-01-28T00:32:42.022Z,-1.87
2024-01-28T00:35:09.678Z,-1.87
2024-01-28T00:37:36.403Z,-1.68
2024-01-28T00:40:05.096Z,-1.78
2024-01-28T00:42:32.058Z,-1.70
2024-01-28T00:44:58.670Z,-1.81
2024-01-28T00:47:25.315Z,-1.69
2024-01-28T00:49:52.341Z,-1.72
2024-01-28T00:52:19.173Z,-1.84
2024-01-28T00:54:45.906Z,-1.70
2024-01-28T00:57:12.653Z,-1.76
2024-01-28T00:59:39.552Z,-1.77
2024-01-28T01:02:06.176Z,-1.77
2024-01-28T01:04:33.437Z,-1.70
2024-01-28T01:07:00.158Z,-1.73
2024-01-28T01:09:26.965Z,-1.89
2024-01-28T01:11:53.586Z,-1.82
2024-01-28T01:14:20.170Z,-1.77
2024-01-28T01:16:46.696Z,-1.76
2024-01-28T01:19:13.445Z,-1.90
2024-01-28T01:21:40.340Z,-1.82
2024-01-28T01:24:06.969Z,-1.83
2024-01-28T01:26:33.527Z,-1.89
2024-01-28T01:29:00.148Z,-1.90
2024-01-28T01:31:26.727Z,-1.84
2024-01-28T01:33:53.504Z,-1.98
2024-01-28T01:36:21.196Z,-1.97
2024-01-28T01:38:48.470Z,-1.97
2024-01-28T01:41:15.411Z,-1.92
2024-01-28T01:43:42.056Z,-1.98
2024-01-28T01:46:10.734Z,-2.15
2024-01-28T01:48:37.451Z,-2.20
2024-01-28T01:51:05.581Z,-2.23
2024-01-28T01:53:32.233Z,-2.29
2024-01-28T01:55:59.389Z,-2.23
2024-01-28T01:58:26.438Z,-2.29
2024-01-28T02:00:53.550Z,-2.18
2024-01-28T02:03:20.772Z,-2.27
2024-01-28T02:05:48.156Z,-2.19
2024-01-28T02:08:16.415Z,-2.33
2024-01-28T02:10:44.902Z,-2.28
2024-01-28T02:13:11.725Z,-2.35
2024-01-28T02:15:41.922Z,-2.37
2024-01-28T02:18:09.139Z,-2.32
2024-01-28T02:20:36.032Z,-2.25
2024-01-28T02:23:02.611Z,-2.39
2024-01-28T02:25:29.224Z,-2.32
2024-01-28T02:27:56.359Z,-2.37
2024-01-28T02:30:23.671Z,-2.48
2024-01-28T02:32:51.386Z,-2.53
2024-01-28T02:35:18.635Z,-2.54
2024-01-28T02:37:45.717Z,-2.66
2024-01-28T02:40:12.640Z,-2.73
2024-01-28T02:42:39.394Z,-2.66
2024-01-28T02:45:06.630Z,-2.65
2024-01-28T02:47:33.297Z,-2.68
2024-01-28T02:50:00.062Z,-2.70
2024-01-28T02:52:26.832Z,-2.85
2024-01-28T02:54:53.511Z,-2.76
2024-01-28T02:57:20.251Z,-2.81
2024-01-28T02:59:46.859Z,-2.84
2024-01-28T03:02:13.402Z,-2.81
2024-01-28T03:04:40.704Z,-2.91
2024-01-28T03:07:07.696Z,-2.97
2024-01-28T03:09:34.427Z,-2.96
2024-01-28T03:12:01.070Z,-2.94
2024-01-28T03:14:28.271Z,-2.97
2024-01-28T03:16:54.953Z,-2.89
2024-01-28T03:19:21.547Z,-2.99
2024-01-28T03:21:48.482Z,-3.03
2024-01-28T03:24:15.213Z,-3.01
2024-01-28T03:26:41.834Z,-2.91
2024-01-28T03:29:08.816Z,-2.99
2024-01-28T03:31:35.542Z,-3.21
2024-01-28T03:34:02.321Z,-3.14
2024-01-28T03:36:29.169Z,-3.06
2024-01-28T03:38:55.878Z,-3.11
2024-01-28T03:41:22.764Z,-3.11
2024-01-28T03:43:49.542Z,-3.07
2024-01-28T03:46:16.192Z,-3.04
2024-01-28T03:48:43.001Z,-3.00
2024-01-28T03:51:09.782Z,-3.13
2024-01-28T03:53:36.513Z,-2.97
2024-01-28T03:56:03.193Z,-3.22
2024-01-28T03:58:29.825Z,-3.27
2024-01-28T04:00:56.584Z,-3.35
2024-01-28T04:03:23.477Z,-3.28
2024-01-28T04:05:50.100Z,-3.25
2024-01-28T04:08:16.691Z,-3.37
2024-01-28T04:10:43.275Z,-3.58
2024-01-28T04:13:10.572Z,-3.40
2024-01-28T04:15:37.212Z,-3.36
2024-01-28T04:18:04.141Z,-3.37
2024-01-28T04:20:30.767Z,-3.46
2024-01-28T04:22:57.423Z,-3.35
2024-01-28T04:25:24.006Z,-3.47
2024-01-28T04:27:50.746Z,-3.48
2024-01-28T04:30:18.267Z,-3.48
2024-01-28T04:32:45.626Z,-3.46
2024-01-28T04:35:13.645Z,-3.52
2024-01-28T04:37:40.796Z,-3.52
2024-01-28T04:40:07.968Z,-3.42
2024-01-28T04:42:34.897Z,-3.46
2024-01-28T04:45:01.564Z,-3.56
2024-01-28T04:47:28.307Z,-3.44
2024-01-28T04:49:54.949Z,-3.34
2024-01-28T04:52:22.210Z,-3.53
2024-01-28T04:54:48.941Z,-3.69
2024-01-28T04:57:15.702Z,-3.64
2024-01-28T04:59:42.297Z,-3.47
2024-01-28T05:02:08.949Z,-3.68
2024-01-28T05:04:35.902Z,-3.73
2024-01-28T05:07:02.692Z,-3.64
2024-01-28T05:09:29.355Z,-3.71
2024-01-28T05:11:56.015Z,-3.72
2024-01-28T05:14:22.592Z,-3.72
2024-01-28T05:16:49.499Z,-3.70
2024-01-28T05:19:16.294Z,-3.70
2024-01-28T05:21:43.176Z,-3.85
2024-01-28T05:24:10.007Z,-3.76
2024-01-28T05:26:37.687Z,-3.74
2024-01-28T05:29:07.153Z,-3.83
2024-01-28T05:31:34.090Z,-3.81
2024-01-28T05:34:01.890Z,-3.96
2024-01-28T05:36:28.881Z,-3.82
2024-01-28T05:38:58.997Z,-3.83
2024-01-28T05:41:25.706Z,-4.11
2024-01-28T05:43:52.391Z,-4.03
2024-01-28T05:46:19.344Z,-4.04
2024-01-28T05:48:46.056Z,-3.91
2024-01-28T05:51:13.502Z,-3.92
2024-01-28T05:53:40.297Z,-3.90
2024-01-28T05:56:07.585Z,-4.01
2024-01-28T05:58:34.609Z,-4.00
2024-01-28T06:01:07.152Z,-4.08
2024-01-28T06:03:35.178Z,-3.99
2024-01-28T06:06:02.430Z,-4.05
2024-01-28T06:08:30.353Z,-4.17
2024-01-28T06:10:57.483Z,-3.95
2024-01-28T06:13:24.192Z,-4.13
2024-01-28T06:15:52.483Z,-4.28
2024-01-28T06:18:20.700Z,-4.29
2024-01-28T06:20:47.673Z,-4.34
2024-01-28T06:23:14.348Z,-4.11
2024-01-28T06:25:41.194Z,-4.21
2024-01-28T06:28:07.806Z,-4.18
2024-01-28T06:30:34.877Z,-4.25
2024-01-28T06:33:01.668Z,-4.13
2024-01-28T06:35:28.352Z,-4.18
2024-01-28T06:37:54.913Z,-4.24
2024-01-28T06:40:21.495Z,-4.39
2024-01-28T06:42:48.161Z,-4.33
2024-01-28T06:45:14.958Z,-4.35
2024-01-28T06:47:41.761Z,-4.26
2024-01-28T06:50:08.830Z,-4.36
2024-01-28T06:52:35.575Z,-4.28
2024-01-28T06:55:02.215Z,-4.31
2024-01-28T06:57:28.867Z,-4.27
2024-01-28T06:59:55.556Z,-4.24
2024-01-28T07:02:25.652Z,-4.20
2024-01-28T07:04:52.448Z,-4.35
2024-01-28T07:07:19.556Z,-4.39
2024-01-28T07:09:46.561Z,-4.30
2024-01-28T07:12:13.224Z,-4.49
2024-01-28T07:14:39.873Z,-4.34
2024-01-28T07:17:06.541Z,-4.26
2024-01-28T07:19:33.210Z,-4.26
2024-01-28T07:21:59.872Z,-4.23
2024-01-28T07:24:26.589Z,-4.24
2024-01-28T07:26:53.383Z,-4.25
2024-01-28T07:29:19.921Z,-4.26
2024-01-28T07:31:46.569Z,-4.27
2024-01-28T07:34:13.607Z,-3.90
2024-01-28T07:36:40.263Z,-4.20
2024-01-28T07:39:08.487Z,-4.18
2024-01-28T07:41:37.521Z,-4.34
2024-01-28T07:44:04.458Z,-4.27
2024-01-28T07:46:31.113Z,-4.24
2024-01-28T07:48:57.897Z,-4.30
2024-01-28T07:51:24.872Z,-4.03
2024-01-28T07:53:51.528Z,-4.17
2024-01-28T07:56:18.178Z,-4.13
2024-01-28T07:58:47.725Z,-4.13
2024-01-28T08:01:14.474Z,-4.04
2024-01-28T08:03:41.145Z,-3.97
2024-01-28T08:06:09.237Z,-4.05
2024-01-28T08:08:35.937Z,-3.94
2024-01-28T08:11:02.688Z,-3.95
2024-01-28T08:13:29.272Z,-3.97
2024-01-28T08:16:02.797Z,-3.81
2024-01-28T08:18:29.812Z,-3.98
2024-01-28T08:20:57.524Z,-3.75
2024-01-28T08:23:24.203Z,-3.72
2024-01-28T08:25:51.028Z,-3.61
2024-01-28T08:28:17.920Z,-3.40
2024-01-28T08:30:45.592Z,-3.30
2024-01-28T08:33:12.358Z,-3.29
2024-01-28T08:35:42.367Z,-3.18
2024-01-28T08:38:09.325Z,-3.11
2024-01-28T08:40:35.992Z,-3.06
2024-01-28T08:43:05.469Z,-2.96
2024-01-28T08:45:32.373Z,-3.00
2024-01-28T08:47:59.096Z,-2.80
2024-01-28T08:50:25.696Z,-2.70
2024-01-28T08:52:53.251Z,-2.86
2024-01-28T08:55:20.038Z,-2.64
2024-01-28T08:57:46.821Z,-2.58
2024-01-28T09:00:13.777Z,-2.57
2024-01-28T09:02:41.057Z,-2.56
2024-01-28T09:05:09.517Z,-2.49
2024-01-28T09:07:36.201Z,-2.42
2024-01-28T09:10:03.184Z,-2.35
2024-01-28T09:12:30.002Z,-2.32
2024-01-28T09:14:56.607Z,-2.33
2024-01-28T09:17:23.328Z,-2.27
2024-01-28T09:19:50.044Z,-2.20
2024-01-28T09:22:16.768Z,-2.14
2024-01-28T09:24:43.891Z,-2.03
2024-01-28T09:27:11.629Z,-2.16
2024-01-28T09:29:38.821Z,-2.07
2024-01-28T09:32:05.718Z,-2.03
2024-01-28T09:34:32.767Z,-2.02
2024-01-28T09:36:59.690Z,-1.95
2024-01-28T09:39:26.671Z,-1.82
2024-01-28T09:42:12.148Z,-1.78
2024-01-28T09:44:40.297Z,-1.67
2024-01-28T09:47:07.918Z,-1.62
2024-01-28T09:49:41.454Z,-1.64
2024-01-28T09:52:11.709Z,-1.54
2024-01-28T09:54:39.370Z,-1.53
2024-01-28T09:57:06.483Z,-1.32
2024-01-28T09:59:39.146Z,-1.26
2024-01-28T10:02:06.556Z,-1.22
2024-01-28T10:04:33.399Z,-1.06
2024-01-28T10:07:01.279Z,-1.08
2024-01-28T10:09:28.383Z,-1.04
2024-01-28T10:11:55.292Z,-1.03
2024-01-28T10:14:21.940Z,-0.99
2024-01-28T10:16:49.557Z,-0.94
2024-01-28T10:19:16.253Z,-0.85
2024-01-28T10:21:45.674Z,-0.68
2024-01-28T10:24:12.309Z,-0.64
2024-01-28T10:26:39.010Z,-0.59
2024-01-28T10:29:08.210Z,-0.54
2024-01-28T10:31:34.920Z,-0.33
2024-01-28T10:34:01.652Z,-0.32
2024-01-28T10:36:28.472Z,-0.22
2024-01-28T10:38:55.998Z,-0.23
2024-01-28T10:41:22.669Z,-0.05
2024-01-28T10:43:53.772Z,-0.09
2024-01-28T10:46:21.328Z,-0.04
2024-01-28T10:48:48.064Z,-0.03
2024-01-28T10:51:15.240Z,0.36
2024-01-28T10:53:42.015Z,0.34
2024-01-28T10:56:08.743Z,0.43
2024-01-28T10:58:35.411Z,0.54
2024-01-28T11:01:04.055Z,0.68
2024-01-28T11:03:30.868Z,0.69
2024-01-28T11:05:57.655Z,0.82
2024-01-28T11:08:27.140Z,0.73
2024-01-28T11:10:54.120Z,0.72
2024-01-28T11:13:20.759Z,0.96
2024-01-28T11:15:47.457Z,1.18
2024-01-28T11:18:16.305Z,1.55
2024-01-28T11:20:43.101Z,1.62
2024-01-28T11:23:15.451Z,1.66
2024-01-28T11:25:42.146Z,1.78
2024-01-28T11:28:09.436Z,1.74
2024-01-28T11:30:36.431Z,1.96
2024-01-28T11:33:13.802Z,1.98
2024-01-28T11:35:43.284Z,2.24
2024-01-28T11:38:11.919Z,2.33
2024-01-28T11:40:39.576Z,2.62
2024-01-28T11:43:07.546Z,2.90
2024-01-28T11:45:34.446Z,2.94
2024-01-28T11:48:06.516Z,3.27
2024-01-28T11:50:33.242Z,3.02
2024-01-28T11:52:59.882Z,3.37
2024-01-28T11:55:26.477Z,3.65
2024-01-28T11:57:53.197Z,3.90
2024-01-28T12:00:19.993Z,3.66
2024-01-28T12:02:46.712Z,4.00
2024-01-28T12:05:13.402Z,3.94
2024-01-28T12:07:40.282Z,4.31
2024-01-28T12:10:08.527Z,4.46
2024-01-28T12:12:39.007Z,4.60
2024-01-28T12:15:06.204Z,4.64
2024-01-28T12:17:39.638Z,4.78
2024-01-28T12:20:06.973Z,4.94
2024-01-28T12:22:39.317Z,5.30
2024-01-28T12:25:10.090Z,5.51
2024-01-28T12:27:37.514Z,5.57
2024-01-28T12:30:04.431Z,5.30
2024-01-28T12:32:31.159Z,5.71
2024-01-28T12:35:05.021Z,5.53
2024-01-28T12:37:32.088Z,5.91
2024-01-28T12:39:58.954Z,6.18
2024-01-28T12:42:25.852Z,6.44
2024-01-28T12:44:52.496Z,6.56
2024-01-28T12:47:19.230Z,6.64
2024-01-28T12:49:45.916Z,6.90
2024-01-28T12:52:12.810Z,7.01
2024-01-28T12:54:39.683Z,6.61
2024-01-28T12:57:07.137Z,6.26
2024-01-28T12:59:33.913Z,6.83
2024-01-28T13:02:00.869Z,6.86
2024-01-28T13:04:27.649Z,6.90
2024-01-28T13:06:54.332Z,7.42
2024-01-28T13:09:22.202Z,7.53
2024-01-28T13:11:48.960Z,7.57
2024-01-28T13:14:16.487Z,7.21
2024-01-28T13:16:43.536Z,7.37
2024-01-28T13:19:10.281Z,7.42
2024-01-28T13:21:37.166Z,7.67
2024-01-28T13:24:06.109Z,7.34
2024-01-28T13:26:33.041Z,7.30
2024-01-28T13:28:59.860Z,7.11
2024-01-28T13:31:26.578Z,7.50
2024-01-28T13:33:53.552Z,7.75
2024-01-28T13:36:20.494Z,7.27
2024-01-28T13:38:48.564Z,7.20
2024-01-28T13:41:17.800Z,7.32
2024-01-28T13:43:44.670Z,7.42
2024-01-28T13:46:12.813Z,8.49
2024-01-28T13:48:40.010Z,8.13
2024-01-28T13:51:06.862Z,7.79
2024-01-28T13:53:35.541Z,7.84
2024-01-28T13:56:05.595Z,8.20
2024-01-28T13:58:32.269Z,8.03
2024-01-28T14:00:58.966Z,8.50
2024-01-28T14:03:25.884Z,8.73
2024-01-28T14:05:52.672Z,8.40
2024-01-28T14:08:19.458Z,8.67
2024-01-28T14:10:47.757Z,8.26
2024-01-28T14:13:15.513Z,8.04
2024-01-28T14:15:43.805Z,8.14
2024-01-28T14:18:14.536Z,8.49
2024-01-28T14:20:41.649Z,8.21
2024-01-28T14:23:09.082Z,8.11
2024-01-28T14:25:45.101Z,8.07
2024-01-28T14:28:15.903Z,8.25
2024-01-28T14:30:43.661Z,8.17
2024-01-28T14:33:15.422Z,8.40
2024-01-28T14:35:44.309Z,8.42
2024-01-28T14:38:11.088Z,8.62
2024-01-28T14:40:38.981Z,8.23
2024-01-28T14:43:05.849Z,7.88
2024-01-28T14:45:33.416Z,8.19
2024-01-28T14:48:00.357Z,8.12
2024-01-28T14:50:27.287Z,8.05
2024-01-28T14:52:54.547Z,8.28
2024-01-28T14:55:21.802Z,7.99
2024-01-28T14:57:48.827Z,8.10
2024-01-28T15:00:17.830Z,7.60
2024-01-28T15:02:45.837Z,7.87
2024-01-28T15:05:12.568Z,7.79
2024-01-28T15:07:39.572Z,7.58
2024-01-28T15:10:07.978Z,7.68
2024-01-28T15:12:35.203Z,7.56
2024-01-28T15:15:01.976Z,7.43
2024-01-28T15:17:29.099Z,7.58
2024-01-28T15:19:56.580Z,7.19
2024-01-28T15:22:27.311Z,7.19
2024-01-28T15:24:57.625Z,6.87
2024-01-28T15:27:26.650Z,6.56
2024-01-28T15:29:53.494Z,6.42
2024-01-28T15:32:20.426Z,6.52
2024-01-28T15:34:47.140Z,6.45
2024-01-28T15:37:13.937Z,6.54
2024-01-28T15:39:40.813Z,6.58
2024-01-28T15:42:07.552Z,6.40
2024-01-28T15:44:34.197Z,6.54
2024-01-28T15:47:00.985Z,6.52
2024-01-28T15:49:28.944Z,6.54
2024-01-28T15:51:55.903Z,6.34
2024-01-28T15:54:22.729Z,6.21
2024-01-28T15:56:49.565Z,6.02
2024-01-28T15:59:16.195Z,6.03
2024-01-28T16:01:43.612Z,5.85
2024-01-28T16:04:10.421Z,5.76
2024-01-28T16:06:37.180Z,5.49
2024-01-28T16:09:04.080Z,5.33
2024-01-28T16:11:30.824Z,5.17
2024-01-28T16:13:57.718Z,5.07
2024-01-28T16:16:24.326Z,4.93
2024-01-28T16:18:51.025Z,4.73
2024-01-28T16:21:17.752Z,4.52
2024-01-28T16:23:44.353Z,4.27
2024-01-28T16:26:12.048Z,4.21
2024-01-28T16:28:38.681Z,4.06
2024-01-28T16:31:05.464Z,3.82
2024-01-28T16:33:32.306Z,3.64
2024-01-28T16:35:59.099Z,3.52
2024-01-28T16:38:25.859Z,3.34
2024-01-28T16:40:52.514Z,3.28
2024-01-28T16:43:19.116Z,3.20
2024-01-28T16:45:46.319Z,3.09
2024-01-28T16:48:13.268Z,2.90
2024-01-28T16:50:40.215Z,2.70
2024-01-28T16:53:06.914Z,2.42
2024-01-28T16:55:33.612Z,2.63
2024-01-28T16:58:05.570Z,2.42
2024-01-28T17:00:32.480Z,2.26
2024-01-28T17:02:59.240Z,2.28
2024-01-28T17:05:26.208Z,2.26
2024-01-28T17:07:53.527Z,2.21
2024-01-28T17:10:20.279Z,2.25
2024-01-28T17:12:47.093Z,1.88
2024-01-28T17:15:13.977Z,1.97
2024-01-28T17:17:41.113Z,2.20
2024-01-28T17:20:08.070Z,2.03
2024-01-28T17:22:35.546Z,1.81
2024-01-28T17:25:04.505Z,1.86
2024-01-28T17:27:31.414Z,1.63
2024-01-28T17:29:58.058Z,1.66
2024-01-28T17:32:24.737Z,1.50
2024-01-28T17:34:52.582Z,1.54
2024-01-28T17:37:19.662Z,1.25
2024-01-28T17:39:46.514Z,1.22
2024-01-28T17:42:15.544Z,1.05
2024-01-28T17:44:42.444Z,1.06
2024-01-28T17:47:12.737Z,0.91
2024-01-28T17:49:39.763Z,1.03
2024-01-28T17:52:09.161Z,0.74
2024-01-28T17:54:36.911Z,0.85
2024-01-28T17:57:04.632Z,0.58
2024-01-28T17:59:31.326Z,0.71
2024-01-28T18:01:58.304Z,0.63
2024-01-28T18:04:25.826Z,0.93
2024-01-28T18:06:54.038Z,0.75
2024-01-28T18:09:20.838Z,0.81
2024-01-28T18:11:47.598Z,0.76
2024-01-28T18:14:16.350Z,0.67
2024-01-28T18:16:43.071Z,0.48
2024-01-28T18:19:10.072Z,0.50
2024-01-28T18:21:36.962Z,0.51
2024-01-28T18:24:04.245Z,0.45
2024-01-28T18:26:31.052Z,0.08
2024-01-28T18:28:57.841Z,0.11
2024-01-28T18:31:25.461Z,-0.01
2024-01-28T18:33:53.654Z,0.20
2024-01-28T18:36:24.752Z,0.00
2024-01-28T18:38:53.306Z,-0.22
2024-01-28T18:41:20.991Z,-0.04
2024-01-28T18:43:49.945Z,-0.06
2024-01-28T18:46:18.142Z,-0.01
2024-01-28T18:48:45.151Z,0.01
2024-01-28T18:51:11.998Z,-0.19
2024-01-28T18:53:39.140Z,-0.22
2024-01-28T18:56:06.501Z,-0.19
2024-01-28T18:58:33.173Z,-0.37
2024-01-28T19:00:59.964Z,-0.21
2024-01-28T19:03:26.743Z,-0.22
2024-01-28T19:05:53.480Z,-0.30
2024-01-28T19:08:20.596Z,-0.44
2024-01-28T19:10:47.301Z,-0.46
2024-01-28T19:13:15.572Z,-0.55
2024-01-28T19:15:44.190Z,-0.61
2024-01-28T19:18:11.028Z,-0.64
2024-01-28T19:20:37.746Z,-0.66
2024-01-28T19:23:09.093Z,-0.56
2024-01-28T19:25:36.149Z,-0.49
2024-01-28T19:28:02.854Z,-0.50
2024-01-28T19:30:29.652Z,-0.73
2024-01-28T19:32:56.568Z,-0.65
2024-01-28T19:35:23.791Z,-0.57
2024-01-28T19:37:50.763Z,-0.75
2024-01-28T19:40:17.503Z,-0.59
2024-01-28T19:42:44.692Z,-0.80
2024-01-28T19:45:13.091Z,-0.80
2024-01-28T19:47:41.719Z,-0.82
2024-01-28T19:50:08.882Z,-0.89
2024-01-28T19:52:35.594Z,-1.13
2024-01-28T19:55:02.377Z,-0.92
2024-01-28T19:57:29.427Z,-0.71
2024-01-28T19:59:56.433Z,-0.97
2024-01-28T20:02:26.664Z,-1.05
2024-01-28T20:04:55.220Z,-0.80
2024-01-28T20:07:23.047Z,-0.89
2024-01-28T20:09:51.613Z,-0.91
2024-01-28T20:12:20.456Z,-1.14
2024-01-28T20:14:50.937Z,-1.15
2024-01-28T20:17:19.196Z,-1.04
2024-01-28T20:19:47.033Z,-1.10
2024-01-28T20:22:15.103Z,-1.02
2024-01-28T20:24:44.449Z,-0.98
2024-01-28T20:27:12.988Z,-1.09
2024-01-28T20:29:41.562Z,-1.30
2024-01-28T20:32:09.173Z,-1.19
2024-01-28T20:34:36.676Z,-1.31
2024-01-28T20:37:04.178Z,-1.27
2024-01-28T20:39:32.365Z,-1.07
2024-01-28T20:42:00.050Z,-1.16
2024-01-28T20:44:28.673Z,-1.05
2024-01-28T20:46:56.537Z,-1.00
2024-01-28T20:49:24.999Z,-1.07
2024-01-28T20:51:52.521Z,-1.18
2024-01-28T20:54:20.964Z,-1.16
2024-01-28T20:56:48.142Z,-1.17
2024-01-28T20:59:16.474Z,-1.30
2024-01-28T21:01:45.763Z,-0.91
2024-01-28T21:04:13.222Z,-0.96
2024-01-28T21:06:41.214Z,-0.78
2024-01-28T21:09:08.896Z,-0.87
2024-01-28T21:11:37.183Z,-0.82
2024-01-28T21:14:05.692Z,-0.64
2024-01-28T21:16:33.086Z,-0.53
2024-01-28T21:19:00.931Z,-0.01
2024-01-28T21:21:29.148Z,-0.25
2024-01-28T21:23:56.519Z,-0.33
2024-01-28T21:26:24.708Z,-0.27
2024-01-28T21:28:52.307Z,-0.09
2024-01-28T21:31:19.711Z,-0.03
2024-01-28T21:33:47.767Z,0.10
2024-01-28T21:36:16.478Z,0.27
2024-01-28T21:38:45.609Z,0.26
2024-01-28T21:41:12.935Z,0.37
2024-01-28T21:43:40.739Z,0.45
2024-01-28T21:46:07.898Z,0.46
2024-01-28T21:48:35.623Z,0.51
2024-01-28T21:51:05.326Z,0.53
2024-01-28T21:53:32.436Z,0.77
2024-01-28T21:56:02.695Z,0.85
2024-01-28T21:58:30.200Z,0.77
2024-01-28T22:00:57.458Z,0.69
2024-01-28T22:03:26.755Z,0.97
2024-01-28T22:05:54.478Z,0.71
2024-01-28T22:08:21.880Z,0.58
2024-01-28T22:10:49.038Z,0.63
2024-01-28T22:13:16.898Z,0.90
2024-01-28T22:15:44.298Z,0.65
2024-01-28T22:18:11.300Z,0.46
2024-01-28T22:20:38.646Z,0.63
2024-01-28T22:23:06.525Z,0.49
2024-01-28T22:25:35.977Z,0.73
2024-01-28T22:28:03.285Z,0.87
2024-01-28T22:30:32.227Z,0.72
2024-01-28T22:32:59.455Z,0.66
2024-01-28T22:35:28.437Z,0.63
2024-01-28T22:37:55.374Z,0.56
2024-01-28T22:40:22.021Z,0.71
2024-01-28T22:42:49.119Z,0.45
2024-01-28T22:45:15.737Z,0.44
2024-01-28T22:47:48.635Z,0.21
2024-01-28T22:50:15.545Z,0.17
2024-01-28T22:52:42.205Z,0.16
2024-01-28T22:55:09.689Z,0.12
2024-01-28T22:57:36.532Z,0.21
2024-01-28T23:00:05.518Z,0.01
2024-01-28T23:02:32.109Z,0.16
2024-01-28T23:04:58.930Z,0.24
2024-01-28T23:07:25.636Z,0.20
2024-01-28T23:09:52.227Z,0.04
2024-01-28T23:12:18.933Z,0.06
2024-01-28T23:14:45.569Z,0.02
2024-01-28T23:17:13.359Z,0.25
2024-01-28T23:19:40.207Z,0.20
2024-01-28T23:22:08.220Z,0.04
2024-01-28T23:24:34.992Z,0.06
2024-01-28T23:27:01.683Z,-0.13
2024-01-28T23:29:28.310Z,-0.39
2024-01-28T23:31:54.968Z,-0.34
2024-01-28T23:34:21.661Z,-0.39
2024-01-28T23:36:48.353Z,-0.35
2024-01-28T23:39:16.345Z,-0.62
2024-01-28T23:41:43.013Z,-0.42
2024-01-28T23:44:11.196Z,-0.54
2024-01-28T23:46:40.805Z,-0.44
2024-01-28T23:49:09.418Z,-0.32
2024-01-28T23:51:36.192Z,-0.42
2024-01-28T23:54:02.865Z,-0.44
2024-01-28T23:56:30.865Z,-0.51
2024-01-28T23:58:57.758Z,-0.50
